Time;durP1;ratioP1;P1;durP2;ratioP2;P2;SDS_P1;SDS_P2;PMS_P1;PMS_P2;Temp;Humidity;BMP_temperature;BMP_pressure;BME280_temperature;BME280_humidity;BME280_pressure;Samples;Min_cycle;Max_cycle;Signal;HPM_P1;HPM_P2
2022/05/11 00:00:30;;;;;;;12.43;3.53;;;19.30;48.60;;;;;;5029769;28;20208;-91
2022/05/11 00:02:57;;;;;;;14.27;4.10;;;19.20;48.60;;;;;;5027247;28;20206;-91
2022/05/11 00:05:26;;;;;;;10.40;3.20;;;19.20;48.60;;;;;;5029134;28;20213;-92
2022/05/11 00:07:55;;;;;;;9.80;3.37;;;19.20;48.70;;;;;;5028434;28;20632;-93
2022/05/11 00:10:22;;;;;;;9.70;3.17;;;19.20;48.70;;;;;;5028665;28;20550;-90
2022/05/11 00:12:50;;;;;;;6.97;2.43;;;19.20;48.70;;;;;;5023491;28;20236;-91
2022/05/11 00:15:20;;;;;;;15.30;4.23;;;19.20;48.70;;;;;;5026765;28;20570;-92
2022/05/11 00:17:47;;;;;;;11.93;3.30;;;19.10;48.80;;;;;;5028364;28;20204;-92
2022/05/11 00:20:16;;;;;;;10.27;3.17;;;19.10;48.80;;;;;;5029780;28;20208;-92
2022/05/11 00:22:44;;;;;;;9.80;3.30;;;19.10;48.80;;;;;;5028135;28;20204;-91
2022/05/11 00:25:15;;;;;;;8.43;2.70;;;19.10;49.40;;;;;;5028578;28;20208;-92
2022/05/11 00:27:47;;;;;;;10.97;2.70;;;19.10;48.80;;;;;;5029123;28;20204;-92
2022/05/11 00:30:14;;;;;;;11.87;3.60;;;19.10;48.90;;;;;;5029100;28;20204;-92
2022/05/11 00:32:43;;;;;;;14.20;4.20;;;19.10;48.80;;;;;;5029057;28;20325;-92
2022/05/11 00:35:11;;;;;;;11.23;3.70;;;19.00;48.70;;;;;;5028975;28;20755;-91
2022/05/11 00:37:39;;;;;;;6.80;2.60;;;19.00;48.80;;;;;;5030063;28;20247;-91
2022/05/11 00:40:09;;;;;;;13.37;3.37;;;19.00;48.80;;;;;;5027607;28;20295;-91
2022/05/11 00:42:36;;;;;;;9.07;3.43;;;19.00;48.90;;;;;;5026863;28;20641;-92
2022/05/11 00:45:04;;;;;;;7.47;2.73;;;18.90;49.00;;;;;;5028047;28;20262;-92
2022/05/11 00:47:38;;;;;;;9.93;3.10;;;18.90;49.00;;;;;;5029491;28;20207;-92
2022/05/11 00:50:08;;;;;;;9.03;2.60;;;18.90;49.20;;;;;;5026789;28;20204;-90
2022/05/11 00:52:41;;;;;;;5.40;2.20;;;18.80;49.00;;;;;;5031009;28;20200;-91
2022/05/11 00:55:16;;;;;;;10.40;3.00;;;18.80;49.00;;;;;;5031143;28;20209;-94
2022/05/11 00:57:49;;;;;;;8.63;3.00;;;18.80;49.30;;;;;;5029966;28;20228;-92
2022/05/11 01:00:19;;;;;;;9.20;2.80;;;18.80;49.30;;;;;;5029837;28;20243;-92
2022/05/11 01:02:53;;;;;;;15.30;4.13;;;18.70;49.40;;;;;;5028602;28;20632;-93
2022/05/11 01:05:23;;;;;;;14.70;3.93;;;18.70;49.50;;;;;;5029695;28;20927;-92
2022/05/11 01:07:51;;;;;;;10.30;2.87;;;18.70;49.50;;;;;;5028289;28;20210;-90
2022/05/11 01:10:24;;;;;;;12.13;3.30;;;18.60;49.50;;;;;;5029189;28;20235;-91
2022/05/11 01:12:57;;;;;;;10.43;3.33;;;18.60;49.60;;;;;;5028912;28;20325;-93
2022/05/11 01:15:26;;;;;;;9.10;2.93;;;18.60;49.60;;;;;;5011779;28;20738;-92
2022/05/11 01:17:55;;;;;;;6.90;2.20;;;18.50;49.60;;;;;;5025561;28;20529;-92
2022/05/11 01:20:25;;;;;;;10.60;3.17;;;18.50;49.70;;;;;;5028090;28;20303;-93
2022/05/11 01:23:00;;;;;;;13.30;3.30;;;18.50;49.90;;;;;;5029203;28;20624;-93
2022/05/11 01:25:32;;;;;;;8.50;3.07;;;18.50;49.90;;;;;;5035333;28;20287;-93
2022/05/11 01:28:04;;;;;;;11.37;3.30;;;18.50;50.00;;;;;;5032707;28;20269;-91
2022/05/11 01:30:32;;;;;;;10.47;3.27;;;18.40;49.90;;;;;;5034908;28;20212;-89
2022/05/11 01:33:00;;;;;;;11.50;3.30;;;18.40;50.00;;;;;;5030931;28;20231;-93
2022/05/11 01:35:44;;;;;;;10.90;3.23;;;18.40;50.00;;;;;;5035733;28;20260;-92
2022/05/11 01:38:20;;;;;;;8.73;2.50;;;18.40;50.10;;;;;;5035241;28;20286;-91
2022/05/11 01:40:50;;;;;;;9.73;2.73;;;18.40;50.10;;;;;;5034123;28;20198;-94
2022/05/11 01:43:20;;;;;;;14.10;3.30;;;18.40;50.10;;;;;;5033586;28;20209;-93
2022/05/11 01:45:50;;;;;;;9.03;2.80;;;18.30;50.20;;;;;;5036073;28;20191;-92
2022/05/11 01:48:21;;;;;;;8.77;2.70;;;18.30;50.20;;;;;;5035239;28;20196;-92
2022/05/11 01:50:50;;;;;;;9.73;2.70;;;18.30;50.40;;;;;;5035170;28;20211;-92
2022/05/11 01:53:18;;;;;;;13.33;3.53;;;18.30;50.50;;;;;;5033262;28;20208;-93
2022/05/11 01:55:48;;;;;;;14.03;3.20;;;18.30;50.60;;;;;;5028670;28;20231;-94
2022/05/11 01:58:15;;;;;;;11.07;3.70;;;18.30;50.50;;;;;;5016377;28;20247;-93
2022/05/11 02:00:46;;;;;;;8.80;2.20;;;18.30;50.50;;;;;;5034573;28;20208;-91
2022/05/11 02:03:15;;;;;;;10.60;3.27;;;18.20;50.50;;;;;;5033484;28;20200;-92
2022/05/11 02:08:28;;;;;;;14.33;3.67;;;18.20;50.70;;;;;;5030746;28;20214;-91
2022/05/11 02:10:58;;;;;;;8.77;2.37;;;18.10;50.80;;;;;;5033073;28;20298;-93
2022/05/11 02:13:30;;;;;;;9.20;3.10;;;18.10;51.60;;;;;;5033637;28;20208;-93
2022/05/11 02:15:59;;;;;;;5.63;2.10;;;18.10;51.80;;;;;;5034007;28;20206;-91
2022/05/11 02:18:27;;;;;;;7.93;2.53;;;18.00;51.10;;;;;;5031860;28;20226;-92
2022/05/11 02:20:54;;;;;;;11.90;2.83;;;18.00;51.00;;;;;;5033614;28;20199;-91
2022/05/11 02:23:24;;;;;;;14.47;3.70;;;18.00;51.10;;;;;;5031914;28;20245;-90
2022/05/11 02:25:52;;;;;;;9.87;3.10;;;18.00;51.10;;;;;;5029006;28;20559;-91
2022/05/11 02:28:23;;;;;;;11.60;3.20;;;18.00;51.30;;;;;;5031765;28;20699;-91
2022/05/11 02:30:52;;;;;;;12.63;3.10;;;17.90;51.40;;;;;;5026445;28;20238;-91
2022/05/11 02:33:20;;;;;;;7.77;2.53;;;17.90;51.20;;;;;;5014293;28;20204;-93
2022/05/11 02:35:49;;;;;;;10.83;3.30;;;17.90;51.70;;;;;;5016549;28;20211;-95
2022/05/11 02:38:23;;;;;;;10.87;3.10;;;17.90;51.30;;;;;;5031564;28;20233;-92
2022/05/11 02:40:51;;;;;;;11.13;3.23;;;17.90;51.70;;;;;;5031793;28;20244;-90
2022/05/11 02:43:19;;;;;;;16.03;4.40;;;17.80;51.70;;;;;;5039584;28;20241;-90
2022/05/11 02:45:48;;;;;;;9.33;2.83;;;17.80;51.60;;;;;;5051280;28;20203;-90
2022/05/11 02:48:18;;;;;;;7.37;2.33;;;17.80;51.60;;;;;;5038405;28;20665;-92
2022/05/11 02:50:50;;;;;;;12.50;2.67;;;17.70;51.60;;;;;;5038566;28;20678;-92
2022/05/11 02:53:32;;;;;;;7.23;2.10;;;17.70;51.80;;;;;;5026850;28;20288;-91
2022/05/11 02:55:59;;;;;;;7.90;2.20;;;17.70;52.00;;;;;;5026120;28;20690;-91
2022/05/11 02:58:31;;;;;;;11.73;3.40;;;17.70;52.00;;;;;;5024260;28;20324;-92
2022/05/11 03:01:02;;;;;;;11.40;2.70;;;17.60;52.00;;;;;;5014484;28;20286;-93
2022/05/11 03:03:33;;;;;;;8.93;2.67;;;17.60;51.90;;;;;;5022801;28;20230;-93
2022/05/11 03:06:04;;;;;;;8.20;2.97;;;17.50;51.90;;;;;;5032173;28;20253;-92
2022/05/11 03:08:31;;;;;;;11.40;2.87;;;17.50;52.00;;;;;;5044860;28;20290;-93
2022/05/11 03:10:58;;;;;;;15.17;3.77;;;17.50;52.20;;;;;;5048675;28;20248;-93
2022/05/11 03:13:27;;;;;;;7.83;2.67;;;17.50;52.00;;;;;;5046082;28;20203;-93
2022/05/11 03:16:05;;;;;;;12.03;3.10;;;17.50;52.30;;;;;;5034860;28;20208;-92
2022/05/11 03:18:38;;;;;;;10.03;2.30;;;17.40;52.50;;;;;;5016682;28;20266;-93
2022/05/11 03:21:12;;;;;;;7.30;2.23;;;17.40;52.50;;;;;;5035206;28;20206;-94
2022/05/11 03:23:39;;;;;;;13.23;3.10;;;17.40;52.50;;;;;;5036444;28;20717;-94
2022/05/11 03:26:14;;;;;;;6.53;2.30;;;17.30;52.40;;;;;;5035085;28;20197;-96
2022/05/11 03:28:41;;;;;;;10.00;2.83;;;17.30;52.60;;;;;;5034538;28;20209;-94
2022/05/11 03:31:12;;;;;;;8.77;2.57;;;17.30;52.60;;;;;;5020534;28;20212;-94
2022/05/11 03:36:25;;;;;;;9.83;2.73;;;17.20;52.70;;;;;;5034317;28;20199;-92
2022/05/11 03:38:53;;;;;;;7.70;2.13;;;17.20;52.60;;;;;;5023030;28;20229;-92
2022/05/11 03:41:22;;;;;;;9.03;2.80;;;17.10;52.60;;;;;;5013892;28;20247;-91
2022/05/11 03:43:51;;;;;;;12.37;3.20;;;17.10;52.60;;;;;;5031020;28;20669;-91
2022/05/11 03:46:23;;;;;;;9.00;2.77;;;17.10;52.60;;;;;;5034724;28;20274;-93
2022/05/11 03:48:51;;;;;;;10.23;3.13;;;17.10;53.00;;;;;;5030530;28;20201;-91
2022/05/11 03:51:18;;;;;;;10.87;2.87;;;17.00;52.80;;;;;;5033414;28;20236;-93
2022/05/11 03:53:45;;;;;;;7.70;2.40;;;17.00;52.90;;;;;;5032883;28;20274;-92
2022/05/11 03:56:12;;;;;;;15.10;4.07;;;17.00;52.80;;;;;;5034275;28;20214;-94
2022/05/11 03:58:40;;;;;;;11.30;3.30;;;17.00;53.10;;;;;;5033957;28;20229;-96
2022/05/11 04:01:08;;;;;;;11.43;2.93;;;17.00;53.10;;;;;;5031923;28;20264;-93
2022/05/11 04:03:43;;;;;;;9.53;2.50;;;16.90;53.10;;;;;;5033805;28;20206;-94
2022/05/11 04:06:10;;;;;;;7.93;2.23;;;16.90;53.20;;;;;;5034331;28;20217;-96
2022/05/11 04:08:37;;;;;;;14.17;4.00;;;16.90;53.10;;;;;;5032993;28;20196;-90
2022/05/11 04:11:04;;;;;;;14.07;4.00;;;16.90;53.10;;;;;;5031351;28;20246;-95
2022/05/11 04:13:31;;;;;;;9.93;2.80;;;16.90;53.10;;;;;;5031610;28;20211;-91
2022/05/11 04:15:59;;;;;;;13.37;4.13;;;16.90;53.30;;;;;;5027982;28;20237;-93
2022/05/11 04:18:26;;;;;;;13.33;3.43;;;16.90;53.30;;;;;;5011615;28;20298;-94
2022/05/11 04:20:54;;;;;;;12.03;3.73;;;16.90;53.30;;;;;;5025089;28;20212;-93
2022/05/11 04:23:21;;;;;;;11.23;3.20;;;16.90;53.40;;;;;;5030563;28;20244;-91
2022/05/11 04:25:48;;;;;;;12.40;3.40;;;17.00;53.60;;;;;;5029443;28;20206;-92
2022/05/11 04:28:15;;;;;;;9.93;2.70;;;17.00;53.30;;;;;;5030446;28;20307;-91
2022/05/11 04:30:42;;;;;;;10.33;3.23;;;17.00;53.40;;;;;;5029453;28;20697;-90
2022/05/11 04:33:10;;;;;;;15.27;3.23;;;17.00;53.40;;;;;;5029312;28;20242;-90
2022/05/11 04:35:38;;;;;;;12.77;4.00;;;17.00;53.30;;;;;;5030791;28;20263;-92
2022/05/11 04:38:07;;;;;;;10.00;3.03;;;17.00;53.60;;;;;;5030676;28;20265;-92
2022/05/11 04:40:35;;;;;;;10.70;3.27;;;17.00;53.70;;;;;;5029709;28;20215;-91
2022/05/11 04:43:08;;;;;;;11.57;3.30;;;17.00;53.70;;;;;;5030607;28;20725;-91
2022/05/11 04:45:38;;;;;;;16.60;3.63;;;17.00;53.80;;;;;;5029191;28;20228;-90
2022/05/11 04:48:06;;;;;;;6.10;2.03;;;17.00;53.80;;;;;;5017228;28;20206;-91
2022/05/11 04:50:37;;;;;;;15.50;3.33;;;16.90;53.80;;;;;;5017381;28;20321;-91
2022/05/11 04:53:04;;;;;;;14.97;3.80;;;16.90;54.00;;;;;;5029983;28;20311;-90
2022/05/11 04:55:33;;;;;;;15.37;3.33;;;16.90;54.00;;;;;;5028433;28;20645;-91
2022/05/11 04:58:00;;;;;;;7.80;2.63;;;16.90;54.10;;;;;;5030356;28;20232;-90
2022/05/11 05:00:27;;;;;;;11.10;2.70;;;16.90;54.00;;;;;;5032700;28;20200;-90
2022/05/11 05:02:55;;;;;;;14.40;3.53;;;16.90;54.10;;;;;;5033427;28;20654;-91
2022/05/11 05:05:22;;;;;;;14.50;4.13;;;16.80;54.10;;;;;;5032849;28;20291;-88
2022/05/11 05:07:49;;;;;;;14.27;3.93;;;16.90;54.30;;;;;;5029173;28;20298;-90
2022/05/11 05:10:17;;;;;;;10.37;3.37;;;16.80;54.10;;;;;;5031302;28;20229;-92
2022/05/11 05:12:45;;;;;;;10.27;2.93;;;16.80;54.50;;;;;;5033018;28;20244;-91
2022/05/11 05:15:15;;;;;;;17.43;3.63;;;16.80;54.50;;;;;;5032525;28;20230;-91
2022/05/11 05:17:42;;;;;;;11.70;3.07;;;16.80;55.10;;;;;;5033941;28;20260;-90
2022/05/11 05:20:12;;;;;;;10.37;2.93;;;16.80;54.80;;;;;;5032394;28;20205;-89
2022/05/11 05:22:39;;;;;;;15.30;3.43;;;16.80;54.90;;;;;;5032505;28;20247;-90
2022/05/11 05:25:08;;;;;;;10.80;3.27;;;16.80;55.10;;;;;;5031799;28;20251;-92
2022/05/11 05:27:35;;;;;;;9.50;2.90;;;16.80;54.90;;;;;;5032527;28;20284;-89
2022/05/11 05:32:47;;;;;;;16.47;3.37;;;16.80;55.00;;;;;;5034345;28;20205;-89
2022/05/11 05:35:20;;;;;;;14.50;4.30;;;16.80;55.30;;;;;;5028045;28;20562;-91
2022/05/11 05:37:48;;;;;;;11.80;3.57;;;16.90;55.40;;;;;;5032246;28;20227;-90
2022/05/11 05:40:17;;;;;;;11.80;3.97;;;16.90;55.50;;;;;;5026160;28;20329;-90
2022/05/11 05:42:44;;;;;;;11.37;3.47;;;16.90;55.40;;;;;;5032067;28;20690;-88
2022/05/11 05:45:12;;;;;;;7.40;2.87;;;16.90;55.60;;;;;;5033319;28;20192;-90
2022/05/11 05:47:40;;;;;;;9.93;3.33;;;16.90;55.80;;;;;;5033369;28;20243;-90
2022/05/11 05:50:09;;;;;;;7.60;2.67;;;16.90;55.60;;;;;;5033295;28;20724;-89
2022/05/11 05:52:36;;;;;;;8.33;2.80;;;16.90;55.60;;;;;;5034005;28;20276;-89
2022/05/11 05:55:03;;;;;;;10.37;3.23;;;16.90;55.50;;;;;;5033063;28;20214;-90
2022/05/11 05:57:30;;;;;;;10.00;2.63;;;16.90;55.90;;;;;;5033695;28;20218;-92
2022/05/11 06:00:00;;;;;;;8.47;2.47;;;16.90;56.10;;;;;;5033577;28;20246;-92
2022/05/11 06:02:29;;;;;;;16.00;3.90;;;17.00;56.20;;;;;;5033436;28;20214;-91
2022/05/11 06:04:56;;;;;;;8.80;2.70;;;17.00;56.00;;;;;;5032909;28;20364;-96
2022/05/11 06:07:23;;;;;;;11.43;3.27;;;16.90;56.60;;;;;;5029926;28;20287;-92
2022/05/11 06:09:51;;;;;;;12.53;3.23;;;17.00;55.90;;;;;;5032234;28;20198;-90
2022/05/11 06:12:18;;;;;;;12.73;3.90;;;17.00;56.10;;;;;;5031004;28;20231;-92
2022/05/11 06:14:45;;;;;;;14.27;3.87;;;17.00;56.10;;;;;;5032365;28;20209;-95
2022/05/11 06:17:18;;;;;;;9.60;2.43;;;17.10;56.20;;;;;;5031836;28;20302;-90
2022/05/11 06:19:46;;;;;;;10.83;3.20;;;17.10;56.20;;;;;;5032221;28;20593;-91
2022/05/11 06:22:14;;;;;;;11.60;3.47;;;17.10;56.20;;;;;;5038406;28;20247;-94
2022/05/11 06:24:43;;;;;;;9.13;3.03;;;17.10;56.20;;;;;;5035016;28;20620;-93
2022/05/11 06:27:16;;;;;;;14.90;4.00;;;17.20;56.30;;;;;;5032545;28;20289;-92
2022/05/11 06:29:50;;;;;;;13.40;4.40;;;17.20;56.70;;;;;;5031696;28;20204;-92
2022/05/11 06:32:19;;;;;;;10.97;3.23;;;17.20;56.30;;;;;;5030167;28;20257;-90
2022/05/11 06:34:48;;;;;;;10.80;2.77;;;17.30;56.40;;;;;;5028469;28;20276;-90
2022/05/11 06:37:15;;;;;;;8.63;3.20;;;17.30;56.40;;;;;;5030756;28;20223;-91
2022/05/11 06:39:43;;;;;;;17.30;5.23;;;17.40;56.70;;;;;;5026826;28;20306;-88
2022/05/11 06:42:11;;;;;;;10.47;2.90;;;17.50;56.60;;;;;;5031276;28;20211;-89
2022/05/11 06:44:38;;;;;;;12.10;3.73;;;17.50;56.50;;;;;;5028549;28;20201;-90
2022/05/11 06:47:06;;;;;;;15.67;4.53;;;17.50;56.40;;;;;;5035275;28;20298;-90
2022/05/11 06:49:36;;;;;;;13.97;3.87;;;17.60;56.50;;;;;;5036415;28;20314;-89
2022/05/11 06:52:06;;;;;;;15.80;4.43;;;17.60;56.60;;;;;;5033425;28;20654;-93
2022/05/11 07:00:05;;;;;;;11.10;2.97;;;17.80;56.60;;;;;;5031152;28;20250;-91
2022/05/11 07:02:37;;;;;;;13.50;3.87;;;17.80;56.60;;;;;;5031932;28;20656;-93
2022/05/11 07:05:05;;;;;;;12.23;4.20;;;17.80;56.80;;;;;;5034285;28;20287;-91
2022/05/11 07:07:33;;;;;;;13.30;3.10;;;17.90;56.90;;;;;;5030194;28;20211;-89
2022/05/11 07:10:00;;;;;;;16.97;4.43;;;17.90;56.80;;;;;;5029862;28;20291;-90
2022/05/11 07:12:32;;;;;;;15.87;4.43;;;18.00;56.80;;;;;;5028164;28;20288;-92
2022/05/11 07:15:00;;;;;;;20.70;6.23;;;18.00;56.90;;;;;;5029997;28;20743;-92
2022/05/11 07:17:31;;;;;;;9.93;2.77;;;18.00;57.00;;;;;;5030335;28;20240;-90
2022/05/11 07:20:07;;;;;;;14.97;3.70;;;18.10;56.90;;;;;;5029425;28;20270;-93
2022/05/11 07:22:35;;;;;;;22.23;4.83;;;18.20;56.90;;;;;;5022332;28;20296;-95
2022/05/11 07:25:03;;;;;;;13.90;4.50;;;18.20;56.60;;;;;;5029124;28;20311;-91
2022/05/11 07:27:31;;;;;;;13.00;4.53;;;18.20;56.60;;;;;;5028674;28;20214;-94
2022/05/11 07:29:58;;;;;;;14.10;3.70;;;18.30;56.50;;;;;;5030266;28;20212;-92
2022/05/11 07:32:27;;;;;;;6.30;2.90;;;18.30;56.40;;;;;;5030042;28;20705;-89
2022/05/11 07:34:54;;;;;;;10.73;2.97;;;18.40;56.60;;;;;;5031396;28;20342;-90
2022/05/11 07:37:22;;;;;;;6.30;2.63;;;18.40;56.40;;;;;;5030206;28;20258;-90
2022/05/11 07:39:51;;;;;;;7.80;2.67;;;18.50;56.40;;;;;;5031266;28;20345;-93
2022/05/11 07:42:19;;;;;;;9.43;3.00;;;18.50;56.30;;;;;;5029529;28;20708;-93
2022/05/11 07:44:45;;;;;;;11.30;3.70;;;18.60;56.30;;;;;;5029002;28;20342;-88
2022/05/11 07:47:13;;;;;;;15.83;4.70;;;18.70;56.30;;;;;;5027472;28;20288;-92
2022/05/11 07:49:41;;;;;;;8.67;3.20;;;18.70;56.10;;;;;;5028946;28;20199;-89
2022/05/11 07:52:09;;;;;;;10.63;3.20;;;18.80;56.20;;;;;;5029626;28;20283;-88
2022/05/11 07:54:36;;;;;;;12.63;4.03;;;18.80;56.10;;;;;;5029890;28;20239;-88
2022/05/11 07:59:56;;;;;;;15.37;4.30;;;19.00;56.20;;;;;;5027305;28;20873;-90
2022/05/11 08:02:27;;;;;;;11.73;3.90;;;19.10;55.80;;;;;;5027739;28;20987;-90
2022/05/11 08:04:57;;;;;;;12.40;3.90;;;19.10;55.60;;;;;;5027086;28;20240;-89
2022/05/11 08:07:26;;;;;;;13.10;4.20;;;19.20;55.80;;;;;;5027218;28;20771;-94
2022/05/11 08:09:54;;;;;;;10.40;3.23;;;19.20;55.80;;;;;;5027872;28;20303;-95
2022/05/11 08:12:25;;;;;;;9.03;2.80;;;19.30;55.80;;;;;;5031649;28;20197;-93
2022/05/11 08:14:53;;;;;;;13.53;2.90;;;19.30;55.90;;;;;;5031654;28;20207;-91
2022/05/11 08:17:28;;;;;;;9.03;2.93;;;19.40;56.00;;;;;;5026682;28;20205;-94
2022/05/11 08:19:55;;;;;;;10.77;3.17;;;19.40;55.70;;;;;;5011009;28;20232;-92
2022/05/11 08:22:24;;;;;;;13.07;4.20;;;19.50;55.60;;;;;;5017783;28;20205;-88
2022/05/11 08:24:52;;;;;;;7.53;2.20;;;19.50;55.40;;;;;;5030692;28;20196;-93
2022/05/11 08:27:21;;;;;;;22.87;6.87;;;19.60;55.40;;;;;;5027878;28;20263;-90
2022/05/11 08:35:27;;;;;;;7.97;3.03;;;19.80;55.50;;;;;;5031142;28;20188;-94
2022/05/11 08:37:56;;;;;;;9.00;3.03;;;19.90;55.50;;;;;;5029598;28;20207;-95
2022/05/11 08:40:39;;;;;;;9.27;2.97;;;20.00;55.40;;;;;;5031253;28;20712;-94
2022/05/11 08:43:10;;;;;;;12.60;4.53;;;20.10;55.60;;;;;;5027167;28;20292;-92
2022/05/11 08:45:43;;;;;;;11.70;3.30;;;20.20;55.80;;;;;;5028796;28;20612;-89
2022/05/11 08:48:19;;;;;;;13.50;5.00;;;20.30;55.80;;;;;;5026562;28;20292;-88
2022/05/11 08:50:47;;;;;;;17.27;5.00;;;20.50;55.50;;;;;;5022002;28;20212;-89
2022/05/11 08:53:31;;;;;;;14.07;5.30;;;20.60;55.50;;;;;;5029002;28;20205;-89
2022/05/11 08:56:03;;;;;;;8.57;3.53;;;20.80;55.30;;;;;;5025970;28;20213;-89
2022/05/11 08:58:37;;;;;;;13.47;4.37;;;21.00;55.90;;;;;;5026566;28;20224;-90
2022/05/11 09:01:08;;;;;;;14.90;4.50;;;21.20;54.90;;;;;;5028878;28;20189;-89
2022/05/11 09:03:37;;;;;;;15.77;4.77;;;21.30;54.70;;;;;;5021615;28;20275;-90
2022/05/11 09:06:07;;;;;;;15.10;3.73;;;21.50;54.60;;;;;;5025333;28;20827;-89
2022/05/11 09:08:39;;;;;;;9.27;3.27;;;21.60;54.20;;;;;;5027858;28;20205;-88
2022/05/11 09:11:07;;;;;;;13.30;4.47;;;21.70;53.90;;;;;;5022881;28;20234;-88
2022/05/11 09:13:38;;;;;;;11.73;4.07;;;21.80;53.90;;;;;;5028461;28;20206;-86
2022/05/11 09:16:17;;;;;;;14.70;4.53;;;22.00;53.90;;;;;;5026794;28;20206;-87
2022/05/11 09:18:45;;;;;;;9.77;3.13;;;22.10;53.90;;;;;;5027896;28;20237;-86
2022/05/11 09:21:29;;;;;;;13.07;4.13;;;22.20;53.70;;;;;;5025535;28;20660;-90
2022/05/11 09:24:10;;;;;;;21.30;5.07;;;22.30;53.10;;;;;;5022349;28;20212;-89
2022/05/11 09:26:39;;;;;;;23.17;7.03;;;22.50;53.20;;;;;;5022454;28;20224;-88
2022/05/11 09:29:26;;;;;;;16.97;5.00;;;22.50;52.90;;;;;;5022784;28;20239;-88
2022/05/11 09:31:54;;;;;;;16.07;4.07;;;22.60;52.90;;;;;;5023739;28;20320;-88
2022/05/11 09:34:27;;;;;;;17.00;3.30;;;22.70;52.90;;;;;;5025204;28;20283;-86
2022/05/11 09:36:58;;;;;;;9.00;2.90;;;22.80;52.70;;;;;;5026978;28;20807;-86
2022/05/11 09:39:27;;;;;;;14.17;3.70;;;22.90;52.60;;;;;;5025862;28;20307;-89
2022/05/11 09:42:01;;;;;;;10.63;3.77;;;23.10;52.80;;;;;;5027532;28;20213;-88
2022/05/11 09:44:41;;;;;;;6.53;2.90;;;23.20;52.20;;;;;;5025878;28;20866;-89
2022/05/11 09:47:28;;;;;;;15.03;5.03;;;23.30;52.10;;;;;;5030115;28;20818;-90
2022/05/11 09:49:56;;;;;;;15.93;5.70;;;23.50;51.40;;;;;;5011416;28;20308;-88
2022/05/11 09:52:35;;;;;;;9.90;3.07;;;23.60;51.30;;;;;;5030334;28;20205;-91
2022/05/11 09:55:16;;;;;;;14.93;5.33;;;23.70;50.80;;;;;;5029054;28;20237;-87
2022/05/11 09:57:55;;;;;;;9.90;3.67;;;23.80;50.40;;;;;;5031649;28;20240;-88
2022/05/11 10:00:26;;;;;;;10.47;3.87;;;23.80;49.90;;;;;;5017933;28;20232;-88
2022/05/11 10:02:58;;;;;;;5.60;2.80;;;23.90;50.00;;;;;;5011190;28;20213;-89
2022/05/11 10:05:27;;;;;;;13.20;4.43;;;23.90;49.90;;;;;;5019811;28;20233;-87
2022/05/11 10:07:59;;;;;;;9.83;3.57;;;23.90;50.40;;;;;;5027128;28;20236;-88
2022/05/11 10:10:32;;;;;;;14.40;4.60;;;24.00;49.70;;;;;;5023760;28;20227;-89
2022/05/11 10:13:06;;;;;;;9.43;3.23;;;24.00;50.50;;;;;;5028736;28;20201;-89
2022/05/11 10:24:22;;;;;;;6.30;2.53;;;24.40;49.80;;;;;;5033536;28;20322;-89
2022/05/11 10:26:59;;;;;;;10.73;4.07;;;24.60;49.30;;;;;;5030779;28;20201;-90
2022/05/11 10:29:42;;;;;;;9.10;3.37;;;24.80;49.10;;;;;;5031244;28;20191;-91
2022/05/11 10:32:14;;;;;;;8.10;3.20;;;24.80;48.70;;;;;;5031192;28;20302;-88
2022/05/11 10:34:55;;;;;;;8.83;3.20;;;24.90;49.40;;;;;;5026857;28;20266;-90
2022/05/11 10:37:32;;;;;;;7.60;3.20;;;25.00;49.10;;;;;;5024123;28;20211;-90
2022/05/11 10:40:12;;;;;;;6.57;3.43;;;25.10;48.70;;;;;;5028641;28;20251;-93
2022/05/11 10:42:46;;;;;;;9.50;4.07;;;25.30;48.10;;;;;;5020328;28;20288;-88
2022/05/11 10:45:21;;;;;;;6.30;2.70;;;25.40;49.10;;;;;;5012259;28;20709;-93
2022/05/11 10:48:05;;;;;;;8.73;2.80;;;25.50;48.50;;;;;;5026578;28;20211;-92
2022/05/11 10:50:45;;;;;;;23.50;7.27;;;25.60;47.70;;;;;;5023175;28;20204;-91
2022/05/11 10:53:34;;;;;;;18.50;7.10;;;25.80;47.30;;;;;;5020453;28;20265;-89
2022/05/11 10:56:23;;;;;;;10.40;3.30;;;25.90;47.10;;;;;;5024347;28;20646;-92
2022/05/11 10:59:21;;;;;;;10.63;3.27;;;26.00;46.70;;;;;;5027699;28;20320;-91
2022/05/11 11:01:56;;;;;;;10.47;3.30;;;26.00;46.20;;;;;;5026921;28;20299;-90
2022/05/11 11:04:43;;;;;;;14.60;5.87;;;26.10;46.30;;;;;;5020114;28;20208;-90
2022/05/11 11:07:21;;;;;;;7.33;2.87;;;26.10;46.00;;;;;;5029204;28;20608;-90
2022/05/11 11:10:17;;;;;;;12.90;4.57;;;26.10;45.90;;;;;;5024737;28;20228;-89
2022/05/11 11:12:58;;;;;;;7.70;3.07;;;26.20;45.50;;;;;;5025040;28;20205;-88
2022/05/11 11:15:28;;;;;;;9.77;3.00;;;26.20;46.00;;;;;;5029683;28;20239;-90
2022/05/11 11:17:57;;;;;;;6.97;3.17;;;26.20;45.30;;;;;;5030584;28;20290;-88
2022/05/11 11:20:26;;;;;;;11.80;4.03;;;26.20;45.50;;;;;;5029024;28;20688;-87
2022/05/11 11:23:12;;;;;;;10.77;3.77;;;26.20;45.30;;;;;;5010758;28;20237;-90
2022/05/11 11:25:54;;;;;;;8.03;2.73;;;26.30;45.30;;;;;;5020333;28;20271;-88
2022/05/11 11:28:22;;;;;;;9.17;3.30;;;26.30;45.30;;;;;;5028947;28;20279;-88
2022/05/11 11:31:16;;;;;;;10.47;4.00;;;26.40;45.50;;;;;;5027366;28;20225;-88
2022/05/11 11:34:16;;;;;;;7.87;3.03;;;26.50;45.00;;;;;;5029037;28;20287;-90
2022/05/11 11:36:46;;;;;;;7.20;3.00;;;26.60;44.00;;;;;;5029533;28;20299;-89
2022/05/11 11:40:01;;;;;;;14.27;4.83;;;26.70;44.80;;;;;;5015124;28;20299;-88
2022/05/11 11:42:37;;;;;;;6.90;2.83;;;26.80;43.40;;;;;;4992892;28;20278;-89
2022/05/11 11:45:06;;;;;;;9.77;4.13;;;26.90;44.00;;;;;;5024611;28;20224;-92
2022/05/11 11:47:39;;;;;;;7.93;2.80;;;26.90;43.40;;;;;;5026199;28;20299;-90
2022/05/11 11:50:14;;;;;;;9.87;3.00;;;26.90;43.20;;;;;;5029213;28;20208;-87
2022/05/11 11:52:44;;;;;;;6.80;2.87;;;26.80;42.60;;;;;;5028522;28;20620;-89
2022/05/11 11:55:30;;;;;;;7.57;3.00;;;26.80;42.90;;;;;;5026852;28;20205;-91
2022/05/11 11:58:38;;;;;;;8.83;3.07;;;26.80;42.40;;;;;;5028315;28;20628;-87
2022/05/11 12:01:31;;;;;;;9.73;3.33;;;26.70;43.00;;;;;;5028185;28;20258;-89
2022/05/11 12:04:26;;;;;;;10.03;3.40;;;26.70;42.90;;;;;;5009759;28;20292;-89
2022/05/11 12:15:36;;;;;;;6.17;2.40;;;26.70;42.50;;;;;;5031982;28;20231;-92
2022/05/11 12:18:21;;;;;;;9.07;4.10;;;26.70;43.20;;;;;;5026625;28;20220;-89
2022/05/11 12:20:48;;;;;;;6.07;2.70;;;26.70;42.50;;;;;;5008832;28;20233;-91
2022/05/11 12:23:24;;;;;;;11.87;4.40;;;26.80;42.50;;;;;;5010419;28;20205;-89
2022/05/11 12:25:56;;;;;;;7.33;2.50;;;26.80;43.10;;;;;;5027871;28;20232;-88
2022/05/11 12:28:29;;;;;;;11.13;3.43;;;26.90;42.50;;;;;;5028627;28;20679;-92
2022/05/11 12:30:56;;;;;;;4.83;2.23;;;26.80;41.80;;;;;;5026451;28;20226;-88
2022/05/11 12:33:25;;;;;;;9.77;3.27;;;26.90;42.30;;;;;;5018702;28;20324;-90
2022/05/11 12:35:53;;;;;;;10.93;2.63;;;27.00;42.20;;;;;;5009429;28;20602;-89
2022/05/11 12:38:33;;;;;;;6.00;2.37;;;27.00;42.00;;;;;;5018402;28;20547;-90
2022/05/11 12:41:08;;;;;;;9.47;3.13;;;27.10;41.50;;;;;;5024289;28;20352;-88
2022/05/11 12:43:39;;;;;;;9.47;3.23;;;27.10;41.60;;;;;;5028892;28;20255;-89
2022/05/11 12:46:11;;;;;;;5.90;2.77;;;27.10;41.30;;;;;;5029008;28;20204;-88
2022/05/11 12:48:54;;;;;;;6.83;2.93;;;27.10;41.20;;;;;;5029162;28;20212;-90
2022/05/11 12:51:28;;;;;;;6.63;3.10;;;27.10;40.90;;;;;;5028913;28;20297;-92
2022/05/11 12:53:58;;;;;;;9.67;3.27;;;27.00;40.50;;;;;;5030574;28;20263;-90
2022/05/11 12:56:28;;;;;;;5.47;2.57;;;27.00;40.90;;;;;;5010513;28;20547;-89
2022/05/11 12:58:58;;;;;;;8.93;3.47;;;26.90;40.70;;;;;;5019220;28;20653;-91
2022/05/11 13:01:28;;;;;;;10.93;3.67;;;26.90;40.70;;;;;;5027803;28;21062;-90
2022/05/11 13:03:58;;;;;;;6.13;2.57;;;26.80;41.00;;;;;;5027550;28;20225;-94
2022/05/11 13:06:30;;;;;;;7.40;3.23;;;26.80;41.30;;;;;;5029293;28;20259;-94
2022/05/11 13:09:03;;;;;;;10.53;4.13;;;26.70;40.30;;;;;;5029313;28;20332;-90
2022/05/11 13:11:33;;;;;;;7.97;3.00;;;26.70;40.40;;;;;;5028807;28;20580;-91
2022/05/11 13:14:16;;;;;;;7.63;2.53;;;26.60;40.20;;;;;;5029105;28;20209;-88
2022/05/11 13:16:49;;;;;;;6.10;2.90;;;26.60;40.20;;;;;;5027774;28;20255;-90
2022/05/11 13:19:23;;;;;;;7.33;2.60;;;26.50;40.60;;;;;;5028591;28;20231;-92
2022/05/11 13:21:51;;;;;;;12.60;3.97;;;26.40;40.40;;;;;;5031601;28;20211;-91
2022/05/11 13:24:37;;;;;;;10.00;3.87;;;26.30;40.90;;;;;;5031019;28;20283;-93
2022/05/11 13:27:26;;;;;;;8.83;3.23;;;26.20;41.00;;;;;;5031499;28;20208;-88
2022/05/11 13:30:19;;;;;;;8.10;3.47;;;26.20;41.30;;;;;;5029239;28;20266;-94
2022/05/11 13:32:50;;;;;;;7.43;3.07;;;26.10;41.30;;;;;;5028834;28;20278;-88
2022/05/11 13:35:24;;;;;;;5.40;2.50;;;26.10;41.50;;;;;;5034129;28;20208;-93
2022/05/11 13:38:16;;;;;;;8.50;2.70;;;26.20;41.40;;;;;;5026090;28;20625;-91
2022/05/11 13:40:58;;;;;;;12.87;3.17;;;26.20;41.30;;;;;;5024601;28;20391;-96
2022/05/11 13:43:29;;;;;;;8.93;3.33;;;26.30;41.30;;;;;;5031858;28;20637;-94